createdAt,value
2018-05-26T00:00:35.142Z,99.90
2018-05-26T00:03:09.356Z,99.90
2018-05-26T00:05:42.394Z,99.90
2018-05-26T00:08:24.458Z,99.90
2018-05-26T00:10:52.012Z,99.90
2018-05-26T00:13:20.698Z,99.90
2018-05-26T00:15:48.289Z,99.90
2018-05-26T00:18:17.760Z,99.90
2018-05-26T00:20:46.430Z,99.90
2018-05-26T00:23:20.669Z,99.90
2018-05-26T00:26:06.214Z,99.90
2018-05-26T00:28:34.938Z,99.90
2018-05-26T00:31:07.964Z,99.90
2018-05-26T00:33:38.756Z,99.90
2018-05-26T00:36:17.273Z,99.90
2018-05-26T00:39:02.790Z,99.90
2018-05-26T00:41:30.334Z,99.90
2018-05-26T00:43:59.011Z,99.90
2018-05-26T00:46:31.428Z,99.90
2018-05-26T00:49:15.680Z,99.90
2018-05-26T00:51:54.547Z,99.90
2018-05-26T00:54:33.048Z,99.90
2018-05-26T00:57:07.890Z,99.90
2018-05-26T00:59:36.609Z,99.90
2018-05-26T01:02:08.722Z,99.90
2018-05-26T01:04:36.430Z,99.90
2018-05-26T01:07:06.972Z,99.90
2018-05-26T01:09:35.660Z,99.90
2018-05-26T01:12:04.026Z,99.90
2018-05-26T01:14:41.898Z,99.90
2018-05-26T01:17:13.994Z,99.90
2018-05-26T01:19:44.841Z,99.90
2018-05-26T01:22:13.616Z,99.90
2018-05-26T01:24:42.208Z,99.90
2018-05-26T01:27:14.294Z,99.90
2018-05-26T01:29:56.157Z,99.90
2018-05-26T01:32:25.786Z,99.90
2018-05-26T01:34:55.078Z,99.90
2018-05-26T01:37:27.523Z,99.90
2018-05-26T01:39:56.184Z,99.90
2018-05-26T01:42:38.905Z,99.90
2018-05-26T01:45:28.006Z,99.90
2018-05-26T01:47:56.616Z,99.90
2018-05-26T01:50:24.129Z,99.90
2018-05-26T01:52:52.745Z,99.90
2018-05-26T01:55:20.272Z,99.90
2018-05-26T01:57:47.979Z,99.90
2018-05-26T02:00:40.358Z,99.90
2018-05-26T02:03:09.015Z,99.90
2018-05-26T02:05:36.559Z,99.90
2018-05-26T02:08:06.040Z,99.90
2018-05-26T02:10:34.791Z,99.90
2018-05-26T02:13:03.135Z,99.90
2018-05-26T02:15:36.145Z,99.90
2018-05-26T02:18:07.265Z,99.90
2018-05-26T02:20:34.764Z,99.90
2018-05-26T02:23:10.466Z,99.90
2018-05-26T02:25:40.081Z,99.90
2018-05-26T02:28:12.457Z,99.90
2018-05-26T02:30:46.634Z,99.90
2018-05-26T02:33:15.073Z,99.90
2018-05-26T02:35:42.618Z,99.90
2018-05-26T02:38:21.014Z,99.90
2018-05-26T02:40:56.776Z,99.90
2018-05-26T02:43:25.499Z,99.90
2018-05-26T02:45:55.080Z,99.90
2018-05-26T02:48:22.588Z,99.90
2018-05-26T02:51:08.692Z,99.90
2018-05-26T02:53:46.637Z,99.90
2018-05-26T02:56:16.270Z,99.90
2018-05-26T02:58:56.004Z,99.90
2018-05-26T03:01:38.450Z,99.90
2018-05-26T03:04:05.495Z,99.90
2018-05-26T03:06:40.682Z,99.90
2018-05-26T03:09:14.952Z,99.90
2018-05-26T03:11:49.111Z,99.90
2018-05-26T03:14:25.538Z,99.90
2018-05-26T03:16:56.160Z,99.90
2018-05-26T03:19:27.316Z,99.90
2018-05-26T03:21:55.092Z,99.90
2018-05-26T03:24:29.177Z,99.90
2018-05-26T03:26:59.502Z,99.90
2018-05-26T03:29:31.538Z,99.90
2018-05-26T03:32:04.547Z,99.90
2018-05-26T03:34:32.069Z,99.90
2018-05-26T03:37:01.610Z,99.90
2018-05-26T03:39:30.349Z,99.90
2018-05-26T03:42:11.511Z,99.90
2018-05-26T03:44:39.039Z,99.90
2018-05-26T03:47:08.643Z,99.90
2018-05-26T03:49:39.189Z,99.90
2018-05-26T03:52:07.641Z,99.90
2018-05-26T03:54:48.926Z,99.90
2018-05-26T03:57:29.297Z,99.90
2018-05-26T04:00:17.851Z,99.90
2018-05-26T04:02:46.568Z,99.90
2018-05-26T04:05:15.224Z,99.90
2018-05-26T04:07:43.917Z,99.90
2018-05-26T04:10:12.622Z,99.90
2018-05-26T04:12:41.299Z,99.90
2018-05-26T04:15:16.415Z,99.90
2018-05-26T04:17:48.523Z,99.90
2018-05-26T04:20:21.175Z,99.90
2018-05-26T04:22:49.895Z,99.90
2018-05-26T04:25:18.576Z,99.90
2018-05-26T04:27:46.075Z,99.90
2018-05-26T04:30:15.746Z,99.90
2018-05-26T04:32:49.239Z,99.90
2018-05-26T04:35:31.720Z,99.90
2018-05-26T04:38:07.787Z,99.90
2018-05-26T04:40:35.316Z,99.90
2018-05-26T04:43:07.631Z,99.90
2018-05-26T04:45:38.804Z,99.90
2018-05-26T04:51:01.050Z,99.90
2018-05-26T04:53:34.942Z,99.90
2018-05-26T04:56:13.447Z,99.90
2018-05-26T04:58:44.595Z,99.90
2018-05-26T05:01:23.093Z,99.90
2018-05-26T05:04:08.599Z,99.90
2018-05-26T05:06:38.323Z,99.90
2018-05-26T05:09:21.068Z,99.90
2018-05-26T05:12:06.674Z,99.90
2018-05-26T05:14:41.543Z,99.90
2018-05-26T05:17:09.082Z,99.90
2018-05-26T05:19:36.863Z,99.90
2018-05-26T05:22:04.529Z,99.90
2018-05-26T05:24:32.027Z,99.90
2018-05-26T05:27:02.879Z,99.90
2018-05-26T05:29:31.531Z,99.90
2018-05-26T05:32:07.901Z,99.90
2018-05-26T05:34:46.367Z,99.90
2018-05-26T05:37:17.581Z,99.90
2018-05-26T05:39:48.391Z,99.90
2018-05-26T05:42:23.898Z,99.90
2018-05-26T05:44:52.531Z,99.90
2018-05-26T05:47:20.047Z,99.90
2018-05-26T05:50:05.809Z,99.90
2018-05-26T05:52:41.920Z,99.90
2018-05-26T05:55:14.017Z,99.90
2018-05-26T05:57:53.740Z,99.90
2018-05-26T06:00:27.640Z,99.90
2018-05-26T06:02:57.286Z,99.90
2018-05-26T06:05:42.471Z,99.90
2018-05-26T06:08:12.168Z,99.90
2018-05-26T06:10:43.598Z,99.90
2018-05-26T06:13:13.222Z,99.90
2018-05-26T06:15:41.900Z,99.90
2018-05-26T06:18:24.360Z,99.90
2018-05-26T06:20:52.804Z,99.90
2018-05-26T06:23:33.196Z,99.90
2018-05-26T06:26:11.634Z,99.90
2018-05-26T06:28:42.842Z,99.90
2018-05-26T06:31:14.596Z,99.90
2018-05-26T06:33:42.335Z,99.90
2018-05-26T06:36:11.965Z,99.90
2018-05-26T06:38:40.323Z,99.90
2018-05-26T06:41:09.949Z,99.90
2018-05-26T06:43:38.331Z,99.90
2018-05-26T06:46:05.857Z,99.90
2018-05-26T06:48:33.562Z,99.90
2018-05-26T06:51:01.921Z,99.90
2018-05-26T06:53:40.130Z,99.90
2018-05-26T06:56:14.065Z,99.90
2018-05-26T06:58:51.638Z,99.90
2018-05-26T07:01:23.720Z,99.90
2018-05-26T07:03:59.141Z,99.90
2018-05-26T07:06:31.212Z,99.90
2018-05-26T07:09:04.222Z,99.90
2018-05-26T07:11:31.741Z,99.90
2018-05-26T07:14:01.273Z,99.90
2018-05-26T07:16:32.738Z,99.90
2018-05-26T07:19:01.403Z,99.90
2018-05-26T07:21:28.916Z,99.90
2018-05-26T07:23:56.651Z,99.90
2018-05-26T07:26:28.391Z,99.90
2018-05-26T07:28:58.037Z,99.90
2018-05-26T07:31:26.683Z,99.90
2018-05-26T07:34:05.212Z,99.90
2018-05-26T07:36:34.501Z,99.90
2018-05-26T07:39:02.008Z,99.90
2018-05-26T07:41:35.575Z,99.90
2018-05-26T07:44:04.244Z,99.90
2018-05-26T07:46:40.605Z,99.90
2018-05-26T07:49:15.197Z,99.90
2018-05-26T07:51:43.859Z,99.90
2018-05-26T07:54:29.367Z,99.90
2018-05-26T07:56:59.123Z,99.90
2018-05-26T07:59:31.079Z,99.90
2018-05-26T08:02:02.877Z,99.90
2018-05-26T08:04:32.523Z,99.90
2018-05-26T08:07:01.144Z,99.90
2018-05-26T08:09:41.187Z,99.90
2018-05-26T08:12:19.995Z,99.90
2018-05-26T08:14:58.849Z,99.90
2018-05-26T08:17:30.932Z,99.90
2018-05-26T08:20:15.232Z,99.90
2018-05-26T08:22:54.079Z,99.90
2018-05-26T08:25:22.799Z,99.90
2018-05-26T08:27:50.322Z,99.30
2018-05-26T08:30:25.065Z,99.50
2018-05-26T08:33:00.536Z,99.60
2018-05-26T08:35:32.929Z,98.80
2018-05-26T08:38:04.676Z,98.70
2018-05-26T08:40:36.169Z,97.90
2018-05-26T08:46:14.894Z,97.70
2018-05-26T08:48:53.767Z,98.00
2018-05-26T08:51:36.318Z,97.90
2018-05-26T08:54:04.670Z,96.20
2018-05-26T08:56:40.712Z,96.10
2018-05-26T08:59:12.509Z,96.40
2018-05-26T09:01:40.896Z,95.90
2018-05-26T09:04:11.157Z,95.60
2018-05-26T09:06:40.725Z,95.60
2018-05-26T09:09:11.558Z,96.00
2018-05-26T09:11:39.098Z,95.10
2018-05-26T09:14:06.771Z,95.30
2018-05-26T09:16:46.226Z,95.20
2018-05-26T09:19:31.724Z,95.20
2018-05-26T09:22:01.422Z,94.40
2018-05-26T09:24:30.078Z,93.30
2018-05-26T09:26:57.586Z,93.40
2018-05-26T09:29:25.329Z,94.80
2018-05-26T09:31:54.056Z,93.50
2018-05-26T09:34:21.757Z,93.20
2018-05-26T09:36:51.386Z,93.30
2018-05-26T09:39:20.052Z,94.50
2018-05-26T09:42:00.105Z,92.70
2018-05-26T09:44:45.628Z,92.50
2018-05-26T09:47:15.298Z,92.70
2018-05-26T09:49:47.359Z,92.70
2018-05-26T09:52:19.159Z,92.30
2018-05-26T09:55:03.137Z,92.20
2018-05-26T09:57:36.188Z,91.90
2018-05-26T10:00:28.862Z,92.30
2018-05-26T10:02:58.449Z,92.10
2018-05-26T10:05:38.129Z,91.60
2018-05-26T10:08:05.654Z,91.50
2018-05-26T10:10:34.317Z,91.90
2018-05-26T10:13:05.791Z,92.40
2018-05-26T10:15:38.446Z,92.40
2018-05-26T10:21:15.082Z,91.20
2018-05-26T10:23:42.625Z,91.30
2018-05-26T10:26:14.740Z,91.90
2018-05-26T10:28:44.317Z,91.90
2018-05-26T10:31:21.867Z,91.80
2018-05-26T10:33:50.594Z,93.00
2018-05-26T10:36:29.370Z,92.40
2018-05-26T10:39:15.844Z,93.80
2018-05-26T10:42:02.756Z,92.60
2018-05-26T10:44:34.799Z,91.90
2018-05-26T10:47:06.541Z,92.60
2018-05-26T10:49:41.432Z,92.60
2018-05-26T10:52:19.241Z,92.10
2018-05-26T10:54:56.837Z,92.20
2018-05-26T10:57:25.560Z,91.80
2018-05-26T10:59:56.101Z,91.60
2018-05-26T11:02:33.103Z,91.40
2018-05-26T11:05:07.540Z,91.40
2018-05-26T11:10:28.016Z,90.50
2018-05-26T11:13:01.291Z,90.70
2018-05-26T11:15:28.794Z,90.80
2018-05-26T11:17:57.617Z,90.20
2018-05-26T11:20:24.987Z,90.30
2018-05-26T11:22:52.686Z,89.30
2018-05-26T11:25:21.401Z,89.00
2018-05-26T11:27:49.145Z,88.90
2018-05-26T11:30:22.746Z,89.00
2018-05-26T11:32:59.085Z,90.20
2018-05-26T11:35:27.800Z,90.20
2018-05-26T11:37:58.009Z,90.30
2018-05-26T11:40:38.052Z,90.30
2018-05-26T11:43:05.889Z,90.40
2018-05-26T11:45:33.704Z,88.50
2018-05-26T11:48:03.211Z,88.60
2018-05-26T11:50:34.047Z,88.50
2018-05-26T11:53:02.738Z,89.00
2018-05-26T11:55:41.231Z,87.60
2018-05-26T11:58:10.871Z,87.60
2018-05-26T12:00:51.186Z,88.30
2018-05-26T12:03:20.878Z,90.30
2018-05-26T12:05:53.820Z,90.20
2018-05-26T12:08:36.867Z,87.80
2018-05-26T12:11:05.362Z,90.00
2018-05-26T12:13:33.077Z,88.70
2018-05-26T12:16:22.397Z,90.00
2018-05-26T12:18:51.963Z,88.20
2018-05-26T12:21:24.854Z,90.40
2018-05-26T12:23:54.261Z,89.50
2018-05-26T12:26:40.384Z,89.10
2018-05-26T12:29:13.731Z,88.40
2018-05-26T12:31:41.253Z,87.40
2018-05-26T12:34:08.947Z,88.30
2018-05-26T12:36:37.647Z,87.60
2018-05-26T12:39:06.088Z,87.50
2018-05-26T12:41:50.659Z,88.10
2018-05-26T12:44:23.689Z,88.40
2018-05-26T12:46:53.286Z,88.50
2018-05-26T12:49:39.738Z,86.90
2018-05-26T12:52:08.203Z,87.10
2018-05-26T12:54:42.671Z,87.40
2018-05-26T12:57:17.245Z,87.90
2018-05-26T12:59:44.772Z,84.70
2018-05-26T13:02:20.753Z,84.10
2018-05-26T13:04:59.247Z,85.30
2018-05-26T13:07:34.655Z,84.50
2018-05-26T13:10:07.715Z,83.10
2018-05-26T13:12:51.674Z,84.80
2018-05-26T13:15:24.128Z,85.40
2018-05-26T13:18:02.305Z,85.40
2018-05-26T13:20:40.812Z,87.00
2018-05-26T13:23:09.564Z,84.50
2018-05-26T13:25:37.369Z,84.80
2018-05-26T13:28:06.931Z,84.60
2018-05-26T13:30:47.251Z,82.00
2018-05-26T13:33:14.789Z,81.20
2018-05-26T13:35:43.501Z,83.80
2018-05-26T13:38:11.181Z,81.50
2018-05-26T13:40:40.813Z,83.80
2018-05-26T13:43:09.163Z,85.00
2018-05-26T13:45:47.364Z,84.90
2018-05-26T13:48:14.875Z,88.30
2018-05-26T13:50:44.489Z,83.90
2018-05-26T13:53:18.972Z,82.50
2018-05-26T13:55:51.092Z,82.00
2018-05-26T13:58:19.741Z,82.40
2018-05-26T14:00:51.497Z,81.40
2018-05-26T14:03:20.225Z,80.90
2018-05-26T14:05:49.789Z,84.30
2018-05-26T14:08:27.364Z,83.40
2018-05-26T14:10:56.989Z,83.50
2018-05-26T14:13:29.063Z,82.70
2018-05-26T14:15:58.656Z,83.90
2018-05-26T14:18:28.283Z,83.40
2018-05-26T14:21:02.168Z,85.20
2018-05-26T14:23:37.635Z,85.20
2018-05-26T14:26:16.131Z,83.50
2018-05-26T14:28:47.289Z,84.30
2018-05-26T14:31:33.455Z,84.50
2018-05-26T14:34:20.244Z,83.80
2018-05-26T14:36:53.316Z,83.00
2018-05-26T14:39:20.819Z,82.70
2018-05-26T14:41:48.957Z,82.90
2018-05-26T14:44:19.707Z,82.80
2018-05-26T14:46:47.424Z,84.10
2018-05-26T14:49:14.929Z,88.20
2018-05-26T14:52:03.269Z,84.30
2018-05-26T14:54:34.053Z,86.80
2018-05-26T14:57:01.565Z,83.60
2018-05-26T14:59:29.284Z,87.40
2018-05-26T15:01:58.856Z,82.10
2018-05-26T15:04:32.203Z,83.60
2018-05-26T15:07:14.346Z,81.60
2018-05-26T15:09:43.999Z,82.60
2018-05-26T15:12:20.100Z,81.50
2018-05-26T15:15:05.569Z,82.10
2018-05-26T15:17:46.600Z,81.50
2018-05-26T15:20:21.112Z,81.50
2018-05-26T15:22:51.994Z,81.80
2018-05-26T15:25:19.486Z,83.10
2018-05-26T15:27:49.062Z,80.60
2018-05-26T15:30:22.366Z,82.20
2018-05-26T15:32:50.735Z,82.90
2018-05-26T15:35:18.286Z,82.60
2018-05-26T15:37:49.326Z,82.60
2018-05-26T15:40:28.801Z,83.30
2018-05-26T15:43:06.352Z,79.30
2018-05-26T15:45:35.063Z,81.00
2018-05-26T15:48:02.583Z,80.90
2018-05-26T15:50:31.157Z,85.40
2018-05-26T15:52:59.132Z,81.00
2018-05-26T15:55:26.756Z,81.20
2018-05-26T15:57:54.495Z,81.80
2018-05-26T16:00:26.574Z,82.40
2018-05-26T16:03:08.705Z,82.30
2018-05-26T16:05:36.317Z,82.20
2018-05-26T16:08:12.240Z,83.00
2018-05-26T16:10:40.681Z,82.70
2018-05-26T16:13:13.957Z,81.10
2018-05-26T16:15:42.655Z,80.50
2018-05-26T16:18:21.445Z,80.20
2018-05-26T16:20:53.248Z,82.60
2018-05-26T16:23:33.870Z,81.60
2018-05-26T16:26:07.798Z,81.60
2018-05-26T16:28:49.134Z,80.30
2018-05-26T16:31:17.806Z,81.80
2018-05-26T16:33:46.462Z,82.90
2018-05-26T16:36:32.018Z,82.30
2018-05-26T16:39:01.662Z,82.00
2018-05-26T16:41:39.862Z,82.60
2018-05-26T16:44:18.474Z,80.90
2018-05-26T16:49:40.949Z,82.00
2018-05-26T16:52:21.854Z,80.00
2018-05-26T16:55:09.348Z,81.00
2018-05-26T16:57:56.092Z,81.00
2018-05-26T17:00:27.588Z,80.90
2018-05-26T17:02:58.775Z,80.50
2018-05-26T17:05:38.229Z,80.40
2018-05-26T17:08:10.593Z,80.50
2018-05-26T17:10:41.130Z,80.50
2018-05-26T17:13:08.640Z,81.30
2018-05-26T17:15:40.619Z,82.50
2018-05-26T17:18:15.439Z,82.10
2018-05-26T17:20:48.159Z,80.30
2018-05-26T17:23:15.699Z,80.10
2018-05-26T17:25:43.379Z,80.70
2018-05-26T17:28:21.248Z,81.60
2018-05-26T17:30:52.461Z,80.90
2018-05-26T17:33:28.787Z,80.60
2018-05-26T17:36:00.951Z,79.50
2018-05-26T17:38:41.302Z,79.80
2018-05-26T17:41:23.359Z,80.40
2018-05-26T17:43:58.250Z,80.00
2018-05-26T17:46:37.049Z,79.00
2018-05-26T17:49:07.928Z,80.60
2018-05-26T17:51:40.720Z,80.60
2018-05-26T17:54:10.213Z,80.50
2018-05-26T17:56:39.920Z,80.50
2018-05-26T17:59:13.087Z,81.20
2018-05-26T18:01:48.870Z,82.50
2018-05-26T18:04:20.952Z,82.50
2018-05-26T18:06:52.743Z,82.60
2018-05-26T18:09:26.788Z,82.70
2018-05-26T18:11:54.391Z,84.50
2018-05-26T18:14:22.753Z,83.20
2018-05-26T18:16:54.312Z,83.20
2018-05-26T18:19:23.805Z,86.80
2018-05-26T18:22:08.877Z,87.50
2018-05-26T18:24:39.937Z,84.80
2018-05-26T18:27:07.490Z,85.40
2018-05-26T18:29:48.310Z,86.10
2018-05-26T18:32:28.107Z,85.40
2018-05-26T18:35:02.962Z,85.10
2018-05-26T18:37:34.693Z,85.40
2018-05-26T18:40:05.579Z,87.60
2018-05-26T18:45:30.551Z,86.50
2018-05-26T18:47:58.078Z,87.30
2018-05-26T18:50:27.689Z,88.10
2018-05-26T18:52:58.169Z,90.30
2018-05-26T18:55:25.667Z,90.30
2018-05-26T18:57:54.299Z,89.10
2018-05-26T19:00:40.142Z,90.20
2018-05-26T19:03:09.796Z,90.30
2018-05-26T19:05:44.926Z,91.10
2018-05-26T19:08:14.563Z,91.80
2018-05-26T19:10:51.199Z,91.20
2018-05-26T19:13:26.945Z,91.20
2018-05-26T19:16:01.464Z,91.20
2018-05-26T19:18:31.118Z,91.40
2018-05-26T19:21:02.564Z,91.20
2018-05-26T19:23:30.085Z,91.20
2018-05-26T19:25:58.716Z,91.50
2018-05-26T19:28:27.988Z,91.60
2018-05-26T19:31:00.080Z,91.60
2018-05-26T19:33:51.218Z,91.70
2018-05-26T19:36:30.936Z,91.80
2018-05-26T19:39:10.942Z,91.90
2018-05-26T19:41:40.634Z,92.10
2018-05-26T19:44:12.658Z,92.30
2018-05-26T19:46:56.962Z,92.40
2018-05-26T19:49:35.797Z,92.60
2018-05-26T19:52:07.989Z,92.60
2018-05-26T19:54:40.300Z,92.80
2018-05-26T19:57:15.718Z,93.00
2018-05-26T19:59:47.809Z,93.10
2018-05-26T20:02:29.267Z,93.40
2018-05-26T20:04:58.990Z,93.50
2018-05-26T20:07:27.690Z,93.60
2018-05-26T20:09:58.541Z,93.90
2018-05-26T20:12:33.006Z,93.90
2018-05-26T20:15:22.064Z,94.20
2018-05-26T20:17:50.765Z,94.20
2018-05-26T20:23:13.565Z,94.30
2018-05-26T20:25:42.921Z,94.20
2018-05-26T20:28:13.118Z,94.10
2018-05-26T20:30:44.079Z,94.20
2018-05-26T20:33:11.903Z,94.30
2018-05-26T20:35:40.409Z,94.20
2018-05-26T20:38:11.907Z,94.50
2018-05-26T20:40:46.032Z,94.60
2018-05-26T20:43:24.971Z,94.80
2018-05-26T20:46:05.211Z,94.70
2018-05-26T20:48:38.011Z,94.90
2018-05-26T20:51:06.704Z,94.60
2018-05-26T20:53:34.367Z,94.40
2018-05-26T20:56:01.887Z,94.50
2018-05-26T20:58:32.988Z,94.20
2018-05-26T21:01:03.873Z,94.20
2018-05-26T21:03:36.875Z,94.10
2018-05-26T21:06:08.594Z,94.00
2018-05-26T21:08:39.431Z,94.80
2018-05-26T21:11:14.834Z,94.20
2018-05-26T21:13:42.359Z,93.80
2018-05-26T21:16:17.425Z,94.00
2018-05-26T21:18:48.304Z,94.00
2018-05-26T21:21:15.910Z,94.00
2018-05-26T21:23:45.420Z,94.00
2018-05-26T21:26:13.139Z,94.20
2018-05-26T21:28:42.741Z,93.90
2018-05-26T21:31:14.264Z,94.10
2018-05-26T21:33:42.875Z,94.30
2018-05-26T21:36:14.000Z,94.40
2018-05-26T21:38:42.751Z,94.40
2018-05-26T21:41:12.339Z,94.00
2018-05-26T21:43:41.020Z,94.20
2018-05-26T21:46:09.934Z,94.20
2018-05-26T21:48:39.616Z,94.10
2018-05-26T21:51:09.134Z,93.90
2018-05-26T21:53:36.658Z,93.90
2018-05-26T21:56:09.668Z,93.90
2018-05-26T21:58:41.128Z,93.90
2018-05-26T22:01:11.633Z,93.90
2018-05-26T22:03:39.444Z,94.00
2018-05-26T22:06:09.063Z,94.00
2018-05-26T22:08:36.794Z,94.10
2018-05-26T22:11:15.272Z,94.20
2018-05-26T22:13:52.921Z,94.20
2018-05-26T22:16:20.914Z,94.20
2018-05-26T22:18:50.574Z,94.30
2018-05-26T22:21:19.264Z,94.20
2018-05-26T22:23:50.121Z,94.10
2018-05-26T22:26:17.869Z,94.30
2018-05-26T22:28:45.396Z,94.10
2018-05-26T22:31:13.282Z,94.10
2018-05-26T22:33:41.916Z,94.10
2018-05-26T22:36:14.890Z,94.20
2018-05-26T22:38:44.401Z,94.20
2018-05-26T22:41:13.067Z,94.10
2018-05-26T22:43:42.680Z,94.40
2018-05-26T22:46:10.430Z,94.50
2018-05-26T22:48:40.049Z,94.70
2018-05-26T22:51:12.121Z,94.50
2018-05-26T22:53:39.881Z,94.90
2018-05-26T22:56:10.736Z,95.80
2018-05-26T22:58:41.243Z,95.10
2018-05-26T23:01:13.932Z,94.90
2018-05-26T23:03:45.742Z,95.30
2018-05-26T23:06:14.880Z,95.70
2018-05-26T23:08:43.599Z,95.20
2018-05-26T23:11:13.606Z,95.80
2018-05-26T23:13:42.430Z,95.80
2018-05-26T23:16:13.420Z,96.20
2018-05-26T23:18:42.142Z,95.90
2018-05-26T23:21:15.472Z,95.80
2018-05-26T23:23:47.175Z,96.30
2018-05-26T23:26:16.894Z,95.80
2018-05-26T23:28:51.026Z,95.80
2018-05-26T23:31:24.303Z,96.00
2018-05-26T23:33:58.426Z,95.40
2018-05-26T23:36:25.995Z,95.40
2018-05-26T23:38:53.730Z,95.60
2018-05-26T23:41:21.258Z,95.60
2018-05-26T23:43:52.329Z,95.60
2018-05-26T23:46:24.137Z,95.80
2018-05-26T23:48:51.850Z,95.80
2018-05-26T23:51:24.555Z,95.90
2018-05-26T23:53:53.218Z,96.20
2018-05-26T23:56:21.918Z,97.20
2018-05-26T23:58:50.612Z,96.20
